Time;durP1;ratioP1;P1;durP2;ratioP2;P2;SDS_P1;SDS_P2;PMS_P1;PMS_P2;Temp;Humidity;BMP_temperature;BMP_pressure;BME280_temperature;BME280_humidity;BME280_pressure;Samples;Min_cycle;Max_cycle;Signal;HPM_P1;HPM_P2
2022/01/10 00:00:12;;;;;;;35.97;14.35;;;;;;;;;;4987797;28;100459;-69
2022/01/10 00:02:39;;;;;;;34.50;14.77;;;;;;;;;;4976151;28;99258;-69
2022/01/10 00:05:05;;;;;;;40.95;15.32;;;;;;;;;;4980307;28;98948;-69
2022/01/10 00:07:32;;;;;;;31.70;15.05;;;;;;;;;;4970540;28;99236;-69
2022/01/10 00:09:58;;;;;;;49.60;16.90;;;;;;;;;;4974826;28;100736;-68
2022/01/10 00:12:24;;;;;;;38.25;16.08;;;;;;;;;;4979293;28;98580;-68
2022/01/10 00:14:51;;;;;;;41.10;15.40;;;;;;;;;;4969851;28;101509;-68
2022/01/10 00:17:17;;;;;;;32.95;14.43;;;;;;;;;;4969561;28;100407;-69
2022/01/10 00:19:43;;;;;;;42.13;15.88;;;;;;;;;;4972232;28;99712;-69
2022/01/10 00:22:11;;;;;;;40.10;15.57;;;;;;;;;;4978585;28;100794;-68
2022/01/10 00:24:38;;;;;;;41.75;15.40;;;;;;;;;;4972033;28;99979;-69
2022/01/10 00:27:05;;;;;;;37.50;14.35;;;;;;;;;;4970686;28;100488;-69
2022/01/10 00:29:31;;;;;;;53.42;17.48;;;;;;;;;;5000386;27;101973;-69
2022/01/10 00:31:59;;;;;;;40.38;17.35;;;;;;;;;;4993576;28;97903;-69
2022/01/10 00:34:25;;;;;;;42.60;17.20;;;;;;;;;;4970497;28;99324;-69
2022/01/10 00:36:52;;;;;;;39.60;18.00;;;;;;;;;;4974646;28;99703;-69
2022/01/10 00:39:19;;;;;;;40.38;16.98;;;;;;;;;;5008342;28;99310;-69
2022/01/10 00:41:46;;;;;;;40.95;16.90;;;;;;;;;;4977110;28;101029;-68
2022/01/10 00:44:12;;;;;;;42.55;16.95;;;;;;;;;;4979257;28;99014;-68
2022/01/10 00:46:39;;;;;;;40.03;15.38;;;;;;;;;;4977536;28;100763;-68
2022/01/10 00:49:05;;;;;;;36.60;16.55;;;;;;;;;;4986711;28;101307;-68
2022/01/10 00:51:32;;;;;;;31.85;16.73;;;;;;;;;;4976508;28;98549;-69
2022/01/10 00:53:58;;;;;;;32.10;17.08;;;;;;;;;;4977268;28;100147;-69
2022/01/10 00:56:24;;;;;;;39.28;17.20;;;;;;;;;;4976760;28;100186;-68
2022/01/10 00:58:51;;;;;;;39.08;16.85;;;;;;;;;;4977032;28;98658;-68
2022/01/10 01:01:18;;;;;;;35.55;17.85;;;;;;;;;;4976937;28;99097;-68
2022/01/10 01:03:46;;;;;;;38.05;16.98;;;;;;;;;;4994476;28;102519;-68
2022/01/10 01:06:14;;;;;;;40.55;19.55;;;;;;;;;;4978301;28;98635;-68
2022/01/10 01:08:41;;;;;;;40.38;17.75;;;;;;;;;;4978581;28;99851;-69
2022/01/10 01:16:17;;;;;;;36.58;17.27;;;;;;;;;;4974866;28;99666;-69
2022/01/10 01:24:16;;;;;;;27.88;16.23;;;;;;;;;;4969212;28;99432;-68
2022/01/10 01:26:47;;;;;;;30.25;17.23;;;;;;;;;;4981084;28;98594;-68
2022/01/10 01:29:15;;;;;;;39.25;18.55;;;;;;;;;;4977482;28;101170;-68
2022/01/10 01:31:41;;;;;;;44.15;17.10;;;;;;;;;;4985913;28;98695;-68
2022/01/10 01:34:08;;;;;;;34.75;18.10;;;;;;;;;;4986565;28;101827;-69
2022/01/10 01:36:35;;;;;;;30.95;18.48;;;;;;;;;;4970565;28;102140;-69
2022/01/10 01:39:05;;;;;;;38.03;19.33;;;;;;;;;;4970166;28;99182;-69
2022/01/10 01:43:59;;;;;;;39.80;16.70;;;;;;;;;;4969648;28;99323;-68
2022/01/10 01:46:26;;;;;;;41.20;17.58;;;;;;;;;;4975009;28;97871;-68
2022/01/10 01:48:53;;;;;;;34.97;18.02;;;;;;;;;;4987882;28;100749;-68
2022/01/10 01:51:24;;;;;;;34.30;16.50;;;;;;;;;;4977024;28;99420;-68
2022/01/10 01:53:52;;;;;;;38.17;17.80;;;;;;;;;;5001766;27;101992;-68
2022/01/10 01:56:20;;;;;;;31.15;17.27;;;;;;;;;;4972107;28;99819;-69
2022/01/10 01:58:47;;;;;;;35.38;16.60;;;;;;;;;;4983668;28;98761;-68
2022/01/10 02:01:17;;;;;;;30.73;15.40;;;;;;;;;;4975581;28;100248;-68
2022/01/10 02:03:45;;;;;;;35.05;16.30;;;;;;;;;;4977924;28;99348;-68
2022/01/10 02:06:14;;;;;;;31.25;16.90;;;;;;;;;;4983020;28;99167;-69
2022/01/10 02:08:41;;;;;;;49.83;18.30;;;;;;;;;;4973021;28;101508;-68
2022/01/10 02:11:09;;;;;;;43.83;18.60;;;;;;;;;;4991547;28;101001;-68
2022/01/10 02:13:36;;;;;;;31.52;17.23;;;;;;;;;;4966695;28;101337;-69
2022/01/10 02:16:19;;;;;;;33.00;17.42;;;;;;;;;;5006631;27;100327;-69
2022/01/10 02:18:47;;;;;;;39.25;17.70;;;;;;;;;;4974130;28;99727;-68
2022/01/10 02:21:15;;;;;;;42.88;19.25;;;;;;;;;;4977353;28;101551;-68
2022/01/10 02:23:42;;;;;;;43.17;20.35;;;;;;;;;;4972389;28;99208;-68
2022/01/10 02:26:20;;;;;;;35.78;19.73;;;;;;;;;;5002417;27;98701;-68
2022/01/10 02:28:46;;;;;;;43.95;20.77;;;;;;;;;;4974213;28;99280;-69
2022/01/10 02:31:14;;;;;;;39.60;19.75;;;;;;;;;;4978429;28;99136;-68
2022/01/10 02:33:40;;;;;;;38.67;19.80;;;;;;;;;;4988838;28;100427;-69
2022/01/10 02:36:19;;;;;;;34.10;18.55;;;;;;;;;;4970851;28;99442;-68
2022/01/10 02:38:49;;;;;;;36.63;20.20;;;;;;;;;;4978323;28;100334;-68
2022/01/10 02:41:24;;;;;;;34.35;18.17;;;;;;;;;;4980539;28;101257;-69
2022/01/10 02:43:52;;;;;;;42.67;18.55;;;;;;;;;;4976089;28;102241;-69
2022/01/10 02:46:20;;;;;;;28.95;17.50;;;;;;;;;;5024181;28;98763;-68
2022/01/10 02:48:47;;;;;;;35.83;18.90;;;;;;;;;;4991071;28;101682;-68
2022/01/10 02:51:13;;;;;;;29.13;16.15;;;;;;;;;;4976146;28;102325;-68
2022/01/10 02:53:40;;;;;;;31.42;17.48;;;;;;;;;;4985932;28;100137;-69
2022/01/10 02:56:06;;;;;;;37.13;17.33;;;;;;;;;;4993290;28;101707;-67
2022/01/10 02:58:33;;;;;;;29.30;17.80;;;;;;;;;;4974702;28;98648;-68
2022/01/10 03:00:59;;;;;;;29.20;16.35;;;;;;;;;;4980950;28;101698;-68
2022/01/10 03:03:26;;;;;;;39.17;18.10;;;;;;;;;;4982577;28;101677;-68
2022/01/10 03:05:53;;;;;;;36.13;17.65;;;;;;;;;;4978943;28;98634;-68
2022/01/10 03:08:19;;;;;;;36.33;20.15;;;;;;;;;;4981909;28;100757;-68
2022/01/10 03:10:46;;;;;;;43.83;21.17;;;;;;;;;;4972759;28;100724;-68
2022/01/10 03:13:12;;;;;;;41.42;21.50;;;;;;;;;;4982369;28;98593;-69
2022/01/10 03:15:39;;;;;;;40.05;21.90;;;;;;;;;;4980573;28;102683;-69
2022/01/10 03:18:05;;;;;;;43.10;22.02;;;;;;;;;;4977079;28;100169;-69
2022/01/10 03:20:32;;;;;;;46.15;22.67;;;;;;;;;;4974276;28;99207;-69
2022/01/10 03:22:58;;;;;;;42.55;21.17;;;;;;;;;;4991989;28;102474;-69
2022/01/10 03:25:24;;;;;;;48.42;23.17;;;;;;;;;;4997216;28;97910;-69
2022/01/10 03:27:55;;;;;;;48.10;20.55;;;;;;;;;;4980102;28;98596;-69
2022/01/10 03:30:22;;;;;;;42.10;20.25;;;;;;;;;;4981836;28;99369;-69
2022/01/10 03:32:51;;;;;;;45.47;21.10;;;;;;;;;;4994624;28;99610;-69
2022/01/10 03:35:25;;;;;;;38.40;20.48;;;;;;;;;;4973430;28;100328;-69
2022/01/10 03:37:51;;;;;;;36.30;20.88;;;;;;;;;;4983123;28;99285;-69
2022/01/10 03:40:18;;;;;;;45.17;21.00;;;;;;;;;;4972965;28;100834;-69
2022/01/10 03:42:45;;;;;;;40.63;22.05;;;;;;;;;;4994823;28;101112;-69
2022/01/10 03:45:12;;;;;;;34.67;21.15;;;;;;;;;;4992004;28;98608;-69
2022/01/10 03:47:38;;;;;;;58.00;24.40;;;;;;;;;;4980819;28;98814;-69
2022/01/10 03:50:05;;;;;;;41.78;22.13;;;;;;;;;;4989916;28;100793;-69
2022/01/10 03:52:33;;;;;;;39.90;22.48;;;;;;;;;;4998232;28;98737;-68
2022/01/10 03:55:00;;;;;;;54.05;22.90;;;;;;;;;;5002417;27;99976;-68
2022/01/10 03:57:26;;;;;;;38.33;19.50;;;;;;;;;;4982537;28;100679;-68
2022/01/10 03:59:52;;;;;;;42.40;23.00;;;;;;;;;;4974611;28;98500;-68
2022/01/10 04:02:19;;;;;;;46.53;21.25;;;;;;;;;;4989512;28;101251;-68
2022/01/10 04:04:46;;;;;;;40.53;21.75;;;;;;;;;;4969497;28;98846;-68
2022/01/10 04:07:16;;;;;;;36.72;19.70;;;;;;;;;;4991828;28;101539;-68
2022/01/10 04:09:43;;;;;;;43.47;21.38;;;;;;;;;;4977940;28;99430;-68
2022/01/10 04:12:10;;;;;;;42.15;22.80;;;;;;;;;;4989018;28;100303;-68
2022/01/10 04:14:36;;;;;;;42.85;22.75;;;;;;;;;;4970040;28;101642;-68
2022/01/10 04:17:02;;;;;;;45.95;24.23;;;;;;;;;;4978954;28;99943;-68
2022/01/10 04:19:29;;;;;;;39.35;24.55;;;;;;;;;;4979614;28;98812;-71
2022/01/10 04:21:55;;;;;;;43.53;24.42;;;;;;;;;;4979841;28;99864;-68
2022/01/10 04:24:21;;;;;;;48.78;23.85;;;;;;;;;;4973247;28;99010;-69
2022/01/10 04:26:48;;;;;;;47.72;24.45;;;;;;;;;;4976797;28;101590;-69
2022/01/10 04:29:17;;;;;;;41.38;24.20;;;;;;;;;;4990985;28;100502;-69
2022/01/10 04:31:43;;;;;;;44.60;24.75;;;;;;;;;;4985030;28;98693;-67
2022/01/10 04:34:13;;;;;;;42.90;23.98;;;;;;;;;;4996268;28;100096;-68
2022/01/10 04:36:39;;;;;;;42.00;23.52;;;;;;;;;;5001775;27;99482;-68
2022/01/10 04:39:06;;;;;;;54.78;22.80;;;;;;;;;;4987731;28;98324;-68
2022/01/10 04:41:33;;;;;;;43.50;24.40;;;;;;;;;;4970687;28;100351;-68
2022/01/10 04:44:00;;;;;;;37.70;23.23;;;;;;;;;;4990472;28;100166;-68
2022/01/10 04:46:27;;;;;;;44.60;23.77;;;;;;;;;;4974565;28;101983;-68
2022/01/10 04:48:53;;;;;;;43.50;22.75;;;;;;;;;;4991383;28;101834;-68
2022/01/10 04:51:20;;;;;;;39.35;22.42;;;;;;;;;;4987450;28;98723;-68
2022/01/10 04:53:48;;;;;;;35.75;22.95;;;;;;;;;;4978112;28;100734;-69
2022/01/10 04:56:16;;;;;;;45.65;23.45;;;;;;;;;;4986075;28;100284;-68
2022/01/10 04:58:45;;;;;;;42.45;24.70;;;;;;;;;;4988828;28;98626;-68
2022/01/10 05:01:12;;;;;;;40.05;24.58;;;;;;;;;;4987542;28;100130;-68
2022/01/10 05:03:39;;;;;;;47.55;26.83;;;;;;;;;;4977208;28;100923;-68
2022/01/10 05:06:06;;;;;;;41.60;23.85;;;;;;;;;;4972080;28;99184;-67
2022/01/10 05:08:32;;;;;;;42.65;25.40;;;;;;;;;;4981968;28;101850;-68
2022/01/10 05:11:02;;;;;;;48.10;24.20;;;;;;;;;;4982787;28;99697;-68
2022/01/10 05:13:28;;;;;;;40.78;25.25;;;;;;;;;;4974661;28;99742;-68
2022/01/10 05:15:56;;;;;;;47.53;25.58;;;;;;;;;;4986337;28;99332;-68
2022/01/10 05:18:26;;;;;;;40.45;23.73;;;;;;;;;;4980035;28;99239;-69
2022/01/10 05:20:55;;;;;;;38.75;24.77;;;;;;;;;;4984592;28;101630;-69
2022/01/10 05:23:22;;;;;;;38.58;23.27;;;;;;;;;;4980701;28;99838;-69
2022/01/10 05:25:48;;;;;;;48.28;25.27;;;;;;;;;;4976256;28;98584;-69
2022/01/10 05:28:19;;;;;;;41.60;24.88;;;;;;;;;;4986557;28;100915;-69
2022/01/10 05:30:47;;;;;;;40.38;24.33;;;;;;;;;;5010637;27;98709;-69
2022/01/10 05:33:17;;;;;;;47.22;27.33;;;;;;;;;;4970017;28;101648;-69
2022/01/10 05:35:47;;;;;;;48.72;25.80;;;;;;;;;;4985784;28;100518;-69
2022/01/10 05:38:14;;;;;;;38.70;24.70;;;;;;;;;;4970917;28;99737;-69
2022/01/10 05:40:41;;;;;;;58.13;28.35;;;;;;;;;;4986952;28;101634;-69
2022/01/10 05:43:08;;;;;;;36.67;24.02;;;;;;;;;;4976787;28;99253;-69
2022/01/10 05:45:35;;;;;;;41.65;23.08;;;;;;;;;;4985888;28;98609;-69
2022/01/10 05:48:08;;;;;;;44.30;26.20;;;;;;;;;;4972150;28;101560;-69
2022/01/10 05:50:36;;;;;;;49.03;25.58;;;;;;;;;;4974011;28;99062;-69
2022/01/10 05:53:08;;;;;;;37.92;26.15;;;;;;;;;;4975593;28;102486;-69
2022/01/10 05:55:36;;;;;;;41.33;25.75;;;;;;;;;;4979021;28;99229;-69
2022/01/10 05:58:05;;;;;;;48.38;28.13;;;;;;;;;;4983809;28;98760;-69
2022/01/10 06:00:34;;;;;;;41.90;26.00;;;;;;;;;;5009916;28;101438;-69
2022/01/10 06:03:01;;;;;;;45.60;26.83;;;;;;;;;;4978237;28;99302;-68
2022/01/10 06:05:33;;;;;;;46.67;26.47;;;;;;;;;;4977618;28;99156;-69
2022/01/10 06:08:05;;;;;;;42.92;25.02;;;;;;;;;;4970785;28;99209;-69
2022/01/10 06:10:33;;;;;;;50.28;27.33;;;;;;;;;;4983472;28;101582;-69
2022/01/10 06:13:13;;;;;;;48.47;26.02;;;;;;;;;;4982793;28;101273;-69
2022/01/10 06:15:41;;;;;;;43.35;25.75;;;;;;;;;;4972251;28;103907;-69
2022/01/10 06:18:08;;;;;;;46.67;25.48;;;;;;;;;;4986005;28;97994;-69
2022/01/10 06:20:34;;;;;;;37.63;24.27;;;;;;;;;;4979371;28;101254;-70
2022/01/10 06:23:01;;;;;;;41.55;25.80;;;;;;;;;;4999655;27;99412;-69
2022/01/10 06:25:27;;;;;;;47.97;24.63;;;;;;;;;;4999282;27;100014;-69
2022/01/10 06:27:56;;;;;;;46.58;25.33;;;;;;;;;;4977490;28;100497;-69
2022/01/10 06:30:23;;;;;;;48.13;26.48;;;;;;;;;;4993032;28;101848;-69
2022/01/10 06:32:50;;;;;;;42.80;23.92;;;;;;;;;;4976378;28;98560;-69
2022/01/10 06:35:19;;;;;;;48.42;25.10;;;;;;;;;;4991350;28;101733;-69
2022/01/10 06:37:46;;;;;;;48.13;25.35;;;;;;;;;;4978336;28;99134;-69
2022/01/10 06:40:14;;;;;;;39.75;24.15;;;;;;;;;;4974776;28;101244;-69
2022/01/10 06:42:45;;;;;;;37.17;25.08;;;;;;;;;;4966715;28;100756;-68
2022/01/10 06:45:17;;;;;;;48.22;25.15;;;;;;;;;;4972733;28;98712;-69
2022/01/10 06:47:45;;;;;;;37.45;24.70;;;;;;;;;;4971534;28;101234;-69
2022/01/10 06:50:11;;;;;;;47.15;24.88;;;;;;;;;;4983275;28;102423;-69
2022/01/10 06:52:42;;;;;;;50.58;26.40;;;;;;;;;;5007404;27;98589;-69
2022/01/10 06:55:09;;;;;;;44.08;26.42;;;;;;;;;;4974766;28;99793;-69
2022/01/10 06:57:36;;;;;;;43.28;23.85;;;;;;;;;;4970445;28;98668;-69
2022/01/10 07:00:04;;;;;;;47.42;25.52;;;;;;;;;;4982118;28;99121;-69
2022/01/10 07:02:38;;;;;;;41.55;25.23;;;;;;;;;;5005853;27;101575;-68
2022/01/10 07:05:05;;;;;;;44.28;26.40;;;;;;;;;;4984718;28;99015;-68
2022/01/10 07:07:31;;;;;;;57.95;27.67;;;;;;;;;;4967658;28;101818;-69
2022/01/10 07:10:08;;;;;;;50.97;26.27;;;;;;;;;;5018864;27;99466;-68
2022/01/10 07:12:35;;;;;;;53.53;28.08;;;;;;;;;;4997111;28;99230;-68
2022/01/10 07:15:06;;;;;;;42.22;25.13;;;;;;;;;;4987973;28;102109;-68
2022/01/10 07:17:33;;;;;;;50.17;26.42;;;;;;;;;;4990504;28;101791;-68
2022/01/10 07:20:02;;;;;;;42.47;24.98;;;;;;;;;;4982564;28;101054;-69
2022/01/10 07:22:33;;;;;;;54.53;24.80;;;;;;;;;;5002109;28;100155;-69
2022/01/10 07:25:00;;;;;;;54.20;24.33;;;;;;;;;;4970587;28;99265;-68
2022/01/10 07:27:26;;;;;;;49.65;26.13;;;;;;;;;;5000932;28;99105;-68
2022/01/10 07:29:52;;;;;;;53.25;24.45;;;;;;;;;;4978311;28;100825;-68
2022/01/10 07:32:19;;;;;;;46.20;25.58;;;;;;;;;;4982327;28;99988;-69
2022/01/10 07:34:46;;;;;;;20.27;14.60;;;;;;;;;;4971484;28;98625;-69
2022/01/10 07:37:13;;;;;;;32.63;17.08;;;;;;;;;;4980737;28;99675;-69
2022/01/10 07:39:39;;;;;;;32.67;18.30;;;;;;;;;;4970447;28;100432;-70
2022/01/10 07:42:06;;;;;;;33.35;19.25;;;;;;;;;;4985008;28;99579;-70
2022/01/10 07:44:43;;;;;;;41.55;22.02;;;;;;;;;;4976704;28;98609;-70
2022/01/10 07:47:09;;;;;;;40.80;22.05;;;;;;;;;;4977052;28;100178;-70
2022/01/10 07:49:36;;;;;;;43.50;23.88;;;;;;;;;;4977831;28;99408;-69
2022/01/10 07:52:02;;;;;;;36.60;22.27;;;;;;;;;;4973828;28;99045;-68
2022/01/10 07:54:29;;;;;;;34.40;25.00;;;;;;;;;;4976245;28;100875;-69
2022/01/10 07:56:55;;;;;;;37.38;24.63;;;;;;;;;;4987263;28;99426;-69
2022/01/10 07:59:22;;;;;;;46.67;23.73;;;;;;;;;;4975974;28;99935;-68
2022/01/10 08:01:49;;;;;;;40.58;25.10;;;;;;;;;;4977466;28;100742;-69
2022/01/10 08:04:16;;;;;;;42.38;24.83;;;;;;;;;;4970360;28;99345;-69
2022/01/10 08:06:42;;;;;;;39.30;24.83;;;;;;;;;;4972204;28;99905;-69
2022/01/10 08:09:09;;;;;;;46.30;24.45;;;;;;;;;;4983461;28;99944;-69
2022/01/10 08:11:35;;;;;;;47.80;24.77;;;;;;;;;;4969707;28;98496;-70
2022/01/10 08:14:02;;;;;;;40.38;23.20;;;;;;;;;;4973766;28;101796;-69
2022/01/10 08:16:29;;;;;;;44.78;24.55;;;;;;;;;;4973223;28;99241;-69
2022/01/10 08:18:55;;;;;;;41.78;25.27;;;;;;;;;;4970218;28;98584;-70
2022/01/10 08:21:25;;;;;;;43.40;24.88;;;;;;;;;;4980157;28;101733;-70
2022/01/10 08:23:51;;;;;;;43.65;27.17;;;;;;;;;;4977898;28;98638;-69
2022/01/10 08:26:17;;;;;;;41.95;25.60;;;;;;;;;;4969271;28;99120;-70
2022/01/10 08:28:44;;;;;;;46.58;26.85;;;;;;;;;;4976563;28;101337;-70
2022/01/10 08:31:10;;;;;;;42.78;24.98;;;;;;;;;;4973188;28;98693;-68
2022/01/10 08:33:37;;;;;;;49.22;25.02;;;;;;;;;;4968664;28;99801;-69
2022/01/10 08:36:04;;;;;;;39.30;23.98;;;;;;;;;;4968884;28;99980;-70
2022/01/10 08:38:30;;;;;;;44.25;23.70;;;;;;;;;;4969339;28;98578;-70
2022/01/10 08:40:56;;;;;;;35.40;23.52;;;;;;;;;;4977498;28;101271;-69
2022/01/10 08:43:23;;;;;;;39.00;22.67;;;;;;;;;;4972739;28;99574;-69
2022/01/10 08:45:49;;;;;;;34.92;21.80;;;;;;;;;;4970597;28;100010;-70
2022/01/10 08:48:16;;;;;;;50.67;23.38;;;;;;;;;;4968374;28;100381;-70
2022/01/10 08:50:42;;;;;;;34.63;22.48;;;;;;;;;;4969297;28;98879;-70
2022/01/10 08:53:09;;;;;;;39.80;23.52;;;;;;;;;;4969243;28;100881;-70
2022/01/10 08:55:36;;;;;;;47.05;22.88;;;;;;;;;;4983708;28;100857;-70
2022/01/10 08:58:03;;;;;;;39.60;23.45;;;;;;;;;;4969718;28;98646;-70
2022/01/10 09:00:29;;;;;;;35.60;21.45;;;;;;;;;;4969142;28;100072;-70
2022/01/10 09:02:55;;;;;;;41.67;20.63;;;;;;;;;;4976546;28;100073;-70
2022/01/10 09:05:22;;;;;;;42.20;21.52;;;;;;;;;;4972189;28;98589;-70
2022/01/10 09:07:48;;;;;;;41.55;22.73;;;;;;;;;;4969002;28;99838;-70
2022/01/10 09:10:15;;;;;;;39.35;22.40;;;;;;;;;;4976628;28;97906;-70
2022/01/10 09:12:41;;;;;;;40.30;23.67;;;;;;;;;;4968925;28;99974;-70
2022/01/10 09:15:08;;;;;;;42.25;21.42;;;;;;;;;;4972499;27;99219;-70
2022/01/10 09:17:35;;;;;;;38.13;22.25;;;;;;;;;;4967927;28;99266;-70
2022/01/10 09:20:02;;;;;;;42.63;21.25;;;;;;;;;;4976177;28;100775;-70
2022/01/10 09:22:28;;;;;;;39.10;21.33;;;;;;;;;;4967835;28;100556;-69
2022/01/10 09:24:54;;;;;;;42.38;21.92;;;;;;;;;;4970021;28;100276;-70
2022/01/10 09:27:21;;;;;;;37.65;20.67;;;;;;;;;;4979681;28;100066;-70
2022/01/10 09:29:49;;;;;;;44.60;22.13;;;;;;;;;;4969938;28;99066;-70
2022/01/10 09:32:16;;;;;;;40.80;22.05;;;;;;;;;;4969865;28;99252;-70
2022/01/10 09:34:43;;;;;;;38.50;22.00;;;;;;;;;;4978151;28;100193;-69
2022/01/10 09:37:09;;;;;;;36.97;22.30;;;;;;;;;;4980239;28;98548;-70
2022/01/10 09:39:35;;;;;;;38.70;22.60;;;;;;;;;;4969037;28;100621;-70
2022/01/10 09:42:05;;;;;;;44.47;23.77;;;;;;;;;;4970178;28;99887;-70
2022/01/10 09:44:34;;;;;;;50.22;23.05;;;;;;;;;;4969775;28;98542;-70
2022/01/10 09:47:01;;;;;;;48.88;23.48;;;;;;;;;;4980430;28;100266;-71
2022/01/10 09:49:27;;;;;;;46.88;24.30;;;;;;;;;;4967532;28;98802;-70
2022/01/10 09:51:53;;;;;;;35.05;22.23;;;;;;;;;;4968020;28;101480;-69
2022/01/10 09:54:20;;;;;;;38.92;22.17;;;;;;;;;;4968040;28;100382;-69
2022/01/10 09:56:48;;;;;;;46.38;23.08;;;;;;;;;;4967091;28;98955;-70
2022/01/10 09:59:15;;;;;;;39.08;22.25;;;;;;;;;;4978060;28;100153;-70
2022/01/10 10:01:42;;;;;;;37.10;22.08;;;;;;;;;;4968211;28;99360;-70
2022/01/10 10:04:10;;;;;;;36.28;24.20;;;;;;;;;;4967403;28;98800;-70
2022/01/10 10:06:37;;;;;;;34.70;23.40;;;;;;;;;;4967345;28;100090;-70
2022/01/10 10:09:05;;;;;;;40.13;24.40;;;;;;;;;;4978895;28;99316;-70
2022/01/10 10:11:39;;;;;;;48.88;26.17;;;;;;;;;;4976013;28;100123;-70
2022/01/10 10:14:06;;;;;;;43.33;23.92;;;;;;;;;;4972740;28;100808;-70
2022/01/10 10:16:37;;;;;;;38.67;25.10;;;;;;;;;;4971007;28;99108;-70
2022/01/10 10:19:04;;;;;;;43.78;25.42;;;;;;;;;;4970912;28;99095;-70
2022/01/10 10:21:32;;;;;;;38.90;24.00;;;;;;;;;;4973547;28;100243;-70
2022/01/10 10:23:58;;;;;;;37.70;24.52;;;;;;;;;;4972478;28;97878;-70
2022/01/10 10:26:25;;;;;;;40.05;24.42;;;;;;;;;;4967382;28;99608;-70
2022/01/10 10:28:54;;;;;;;43.55;24.52;;;;;;;;;;4968146;28;100287;-70
2022/01/10 10:31:29;;;;;;;35.10;23.77;;;;;;;;;;4971543;28;100857;-70
2022/01/10 10:33:57;;;;;;;44.03;24.13;;;;;;;;;;4967381;28;100160;-70
2022/01/10 10:36:25;;;;;;;41.50;23.30;;;;;;;;;;4968337;28;98935;-70
2022/01/10 10:38:55;;;;;;;43.30;24.45;;;;;;;;;;4967735;28;100078;-68
2022/01/10 10:41:22;;;;;;;29.73;24.05;;;;;;;;;;4967759;28;100306;-68
2022/01/10 10:43:51;;;;;;;34.08;23.27;;;;;;;;;;4973236;28;98580;-69
2022/01/10 10:46:18;;;;;;;44.70;25.13;;;;;;;;;;4975285;28;100091;-69
2022/01/10 10:48:48;;;;;;;39.03;25.15;;;;;;;;;;4976336;28;99286;-70
2022/01/10 10:51:15;;;;;;;43.22;24.50;;;;;;;;;;4967810;28;98592;-70
2022/01/10 10:53:41;;;;;;;46.10;26.48;;;;;;;;;;4983459;28;99320;-70
2022/01/10 10:56:08;;;;;;;43.75;27.48;;;;;;;;;;4966954;28;99731;-70
2022/01/10 10:58:36;;;;;;;40.55;26.20;;;;;;;;;;4977211;28;99969;-70
2022/01/10 11:01:03;;;;;;;47.55;26.50;;;;;;;;;;4967628;28;100383;-70
2022/01/10 11:03:30;;;;;;;48.40;26.50;;;;;;;;;;4978584;28;98506;-69
2022/01/10 11:06:02;;;;;;;46.22;27.38;;;;;;;;;;4974751;28;99154;-70
2022/01/10 11:08:31;;;;;;;45.28;27.70;;;;;;;;;;4971100;28;100184;-70
2022/01/10 11:10:58;;;;;;;36.15;25.05;;;;;;;;;;4971348;28;98636;-70
2022/01/10 11:13:25;;;;;;;39.20;24.88;;;;;;;;;;4971858;28;99297;-69
2022/01/10 11:15:52;;;;;;;39.45;26.25;;;;;;;;;;4973265;28;100629;-69
2022/01/10 11:18:20;;;;;;;46.90;28.05;;;;;;;;;;4970271;28;100388;-69
2022/01/10 11:20:48;;;;;;;46.75;26.65;;;;;;;;;;4975220;28;101092;-68
2022/01/10 11:23:32;;;;;;;47.42;26.73;;;;;;;;;;4976375;28;99003;-69
2022/01/10 11:25:58;;;;;;;49.25;27.05;;;;;;;;;;4976054;28;99066;-69
2022/01/10 11:28:26;;;;;;;47.60;27.52;;;;;;;;;;4973217;28;100451;-69
2022/01/10 11:30:53;;;;;;;44.58;27.17;;;;;;;;;;4973558;28;98574;-70
2022/01/10 11:33:22;;;;;;;43.70;26.67;;;;;;;;;;4973946;28;99469;-69
2022/01/10 11:35:51;;;;;;;50.75;28.00;;;;;;;;;;4973349;28;100225;-70
2022/01/10 11:38:37;;;;;;;42.92;25.17;;;;;;;;;;4982755;28;99374;-69
2022/01/10 11:41:08;;;;;;;45.05;26.80;;;;;;;;;;4970387;28;100628;-69
2022/01/10 11:43:46;;;;;;;39.90;26.55;;;;;;;;;;4972054;28;98616;-68
2022/01/10 11:46:15;;;;;;;41.50;25.60;;;;;;;;;;4969936;28;101218;-69
2022/01/10 11:48:42;;;;;;;39.42;21.83;;;;;;;;;;4970522;28;99307;-69
2022/01/10 11:51:13;;;;;;;39.92;23.58;;;;;;;;;;4976778;28;99243;-70
2022/01/10 11:53:50;;;;;;;41.25;24.70;;;;;;;;;;4979484;28;100335;-69
2022/01/10 11:56:43;;;;;;;42.25;22.77;;;;;;;;;;4975126;28;99864;-69
2022/01/10 11:59:09;;;;;;;38.45;22.15;;;;;;;;;;4979125;28;98672;-69
2022/01/10 12:01:38;;;;;;;39.33;23.58;;;;;;;;;;4980115;28;101545;-69
2022/01/10 12:04:04;;;;;;;36.50;22.90;;;;;;;;;;4978145;28;97799;-69
2022/01/10 12:06:31;;;;;;;42.38;21.63;;;;;;;;;;4977095;28;99252;-70
2022/01/10 12:08:57;;;;;;;40.90;24.10;;;;;;;;;;4980845;28;98580;-69
2022/01/10 12:11:26;;;;;;;38.28;23.23;;;;;;;;;;4973723;28;99523;-69
2022/01/10 12:13:53;;;;;;;44.22;22.55;;;;;;;;;;4977042;28;101035;-69
2022/01/10 12:16:21;;;;;;;49.83;24.17;;;;;;;;;;4977407;28;100298;-69
2022/01/10 12:18:48;;;;;;;43.08;22.10;;;;;;;;;;4970125;28;98944;-69
2022/01/10 12:21:14;;;;;;;46.35;24.38;;;;;;;;;;4972591;28;100864;-70
2022/01/10 12:23:41;;;;;;;44.83;22.50;;;;;;;;;;4978740;28;99189;-69
2022/01/10 12:26:08;;;;;;;40.00;21.85;;;;;;;;;;4977126;28;100157;-69
2022/01/10 12:28:34;;;;;;;40.22;22.60;;;;;;;;;;4970213;28;99902;-69
2022/01/10 12:31:02;;;;;;;39.63;23.10;;;;;;;;;;4972594;28;98613;-69
2022/01/10 12:33:29;;;;;;;43.30;23.52;;;;;;;;;;4973977;28;100033;-69
2022/01/10 12:35:56;;;;;;;41.13;23.00;;;;;;;;;;4977167;28;101021;-69
2022/01/10 12:38:23;;;;;;;50.33;23.13;;;;;;;;;;4976927;28;98595;-69
2022/01/10 12:40:50;;;;;;;38.92;20.88;;;;;;;;;;4970488;28;100086;-69
2022/01/10 12:43:17;;;;;;;34.30;22.30;;;;;;;;;;4979312;28;100540;-69
2022/01/10 12:45:44;;;;;;;44.65;22.60;;;;;;;;;;4973150;28;99213;-69
2022/01/10 12:48:11;;;;;;;40.85;20.90;;;;;;;;;;4977490;28;99436;-69
2022/01/10 12:50:38;;;;;;;31.15;18.52;;;;;;;;;;4975374;28;98573;-69
2022/01/10 12:53:05;;;;;;;42.88;20.65;;;;;;;;;;4973015;28;99265;-69
2022/01/10 12:55:31;;;;;;;37.45;21.40;;;;;;;;;;4979566;28;99598;-69
2022/01/10 12:57:57;;;;;;;30.08;19.75;;;;;;;;;;4984303;28;98845;-69
2022/01/10 13:00:24;;;;;;;37.13;21.73;;;;;;;;;;4972272;28;100400;-69
2022/01/10 13:02:50;;;;;;;38.05;21.02;;;;;;;;;;4972302;28;100738;-69
2022/01/10 13:05:17;;;;;;;36.83;20.55;;;;;;;;;;4972502;28;98567;-69
2022/01/10 13:07:45;;;;;;;31.75;21.00;;;;;;;;;;4975166;28;100828;-70
2022/01/10 13:10:19;;;;;;;32.95;20.20;;;;;;;;;;4970020;28;99380;-69
2022/01/10 13:12:49;;;;;;;34.08;18.80;;;;;;;;;;4969358;28;100070;-69
2022/01/10 13:15:18;;;;;;;32.67;19.95;;;;;;;;;;4968329;28;100518;-69
2022/01/10 13:17:55;;;;;;;40.97;19.88;;;;;;;;;;4969784;28;98420;-69
2022/01/10 13:20:25;;;;;;;39.33;20.65;;;;;;;;;;4968384;28;100049;-69
2022/01/10 13:23:05;;;;;;;37.53;20.83;;;;;;;;;;4975136;28;100263;-69
2022/01/10 13:25:37;;;;;;;31.55;20.13;;;;;;;;;;4967401;28;99400;-69
2022/01/10 13:28:07;;;;;;;36.38;21.25;;;;;;;;;;4974360;28;100748;-69
2022/01/10 13:30:35;;;;;;;42.47;20.00;;;;;;;;;;4968633;28;98697;-69
2022/01/10 13:33:04;;;;;;;39.83;20.75;;;;;;;;;;4969106;28;100660;-69
2022/01/10 13:35:31;;;;;;;39.13;20.50;;;;;;;;;;4968196;28;100277;-69
2022/01/10 13:38:02;;;;;;;35.08;20.48;;;;;;;;;;4968125;28;98586;-69
2022/01/10 13:40:40;;;;;;;40.03;19.33;;;;;;;;;;4968898;28;99079;-69
2022/01/10 13:43:09;;;;;;;34.05;18.05;;;;;;;;;;4971548;28;99036;-69
2022/01/10 13:45:40;;;;;;;29.88;16.17;;;;;;;;;;4976586;28;98515;-69
2022/01/10 13:48:19;;;;;;;38.13;17.27;;;;;;;;;;4971631;28;100374;-69
2022/01/10 13:50:49;;;;;;;30.30;16.58;;;;;;;;;;4977880;28;101717;-69
2022/01/10 13:53:39;;;;;;;39.65;15.80;;;;;;;;;;4976586;28;100836;-69
2022/01/10 13:56:09;;;;;;;30.17;15.80;;;;;;;;;;4974026;28;99022;-70
2022/01/10 13:58:37;;;;;;;25.08;13.82;;;;;;;;;;4975440;28;98511;-69
2022/01/10 14:01:04;;;;;;;33.80;15.40;;;;;;;;;;4968102;28;98978;-69
2022/01/10 14:03:32;;;;;;;40.85;15.63;;;;;;;;;;4976117;28;99729;-70
2022/01/10 14:06:09;;;;;;;30.10;14.73;;;;;;;;;;4974128;28;98749;-69
2022/01/10 14:08:57;;;;;;;27.67;13.75;;;;;;;;;;4976781;28;100074;-71
2022/01/10 14:11:25;;;;;;;29.25;14.25;;;;;;;;;;4970791;28;100237;-70
2022/01/10 14:13:55;;;;;;;29.88;13.65;;;;;;;;;;4968570;28;100817;-69
2022/01/10 14:16:23;;;;;;;25.48;13.45;;;;;;;;;;4976474;28;101216;-69
2022/01/10 14:18:50;;;;;;;25.35;13.30;;;;;;;;;;4974846;28;98625;-69
2022/01/10 14:21:17;;;;;;;26.25;13.63;;;;;;;;;;4974083;28;99269;-69
2022/01/10 14:23:44;;;;;;;30.88;14.18;;;;;;;;;;4975885;28;99426;-69
2022/01/10 14:26:12;;;;;;;28.58;13.50;;;;;;;;;;4967157;28;98570;-69
2022/01/10 14:28:39;;;;;;;31.48;14.00;;;;;;;;;;4968546;28;99321;-70